Time;durP1;ratioP1;P1;durP2;ratioP2;P2;SDS_P1;SDS_P2;PMS_P1;PMS_P2;Temp;Humidity;BMP_temperature;BMP_pressure;BME280_temperature;BME280_humidity;BME280_pressure;Samples;Min_cycle;Max_cycle;Signal;HPM_P1;HPM_P2
2022/08/22 00:00:21;;;;;;;4.07;0.43;;;17.30;99.90;;;;;;5033859;28;20482;-77
2022/08/22 00:03:17;;;;;;;5.88;0.57;;;17.30;99.90;;;;;;5015871;28;20033;-77
2022/08/22 00:05:51;;;;;;;3.75;0.30;;;17.30;99.90;;;;;;5027186;28;20094;-77
2022/08/22 00:08:22;;;;;;;7.47;0.77;;;17.30;99.90;;;;;;5033882;28;20032;-77
2022/08/22 00:11:13;;;;;;;5.57;0.25;;;17.30;99.90;;;;;;5033573;28;20030;-77
2022/08/22 00:14:02;;;;;;;5.70;1.25;;;17.30;99.90;;;;;;5006784;28;20038;-77
2022/08/22 00:16:32;;;;;;;4.07;0.55;;;17.30;99.90;;;;;;5002009;28;20042;-77
2022/08/22 00:19:16;;;;;;;2.83;0.28;;;17.30;99.90;;;;;;5033416;28;20022;-77
2022/08/22 00:21:52;;;;;;;3.17;0.43;;;17.30;99.90;;;;;;5033458;28;20021;-77
2022/08/22 00:24:58;;;;;;;2.35;0.15;;;17.30;99.90;;;;;;5033344;28;20029;-77
2022/08/22 00:27:36;;;;;;;7.85;0.45;;;17.30;99.90;;;;;;5033482;28;20053;-77
2022/08/22 00:30:11;;;;;;;3.50;0.27;;;17.20;99.90;;;;;;5033297;28;20021;-77
2022/08/22 00:33:00;;;;;;;2.70;0.60;;;17.20;99.90;;;;;;5033664;28;20018;-77
2022/08/22 00:35:33;;;;;;;2.75;0.57;;;17.20;99.90;;;;;;5033342;28;20022;-77
2022/08/22 00:38:01;;;;;;;4.55;0.60;;;17.20;99.90;;;;;;5033281;28;20105;-77
2022/08/22 00:40:39;;;;;;;3.70;1.00;;;17.10;99.90;;;;;;5033347;28;20083;-77
2022/08/22 00:43:33;;;;;;;1.88;0.20;;;17.30;99.90;;;;;;5033043;28;20506;-77
2022/08/22 00:46:20;;;;;;;3.67;0.40;;;17.10;99.90;;;;;;5033177;28;20014;-77
2022/08/22 00:48:51;;;;;;;1.33;0.32;;;17.10;99.90;;;;;;5033514;28;20021;-77
2022/08/22 00:51:39;;;;;;;5.28;0.10;;;17.00;99.90;;;;;;5033118;28;20022;-77
2022/08/22 00:54:17;;;;;;;2.72;0.25;;;17.00;99.90;;;;;;5033393;28;20540;-77
2022/08/22 00:56:58;;;;;;;5.45;0.45;;;17.00;99.90;;;;;;5033111;28;20108;-77
2022/08/22 01:00:08;;;;;;;3.28;0.20;;;16.90;99.90;;;;;;5032984;28;20026;-77
2022/08/22 01:02:50;;;;;;;5.90;0.20;;;16.90;99.90;;;;;;5037016;28;20037;-77
2022/08/22 01:05:40;;;;;;;2.40;0.52;;;16.90;99.90;;;;;;5037427;28;20026;-77
2022/08/22 01:08:27;;;;;;;3.55;0.55;;;16.80;99.90;;;;;;5019202;28;20029;-77
2022/08/22 01:11:20;;;;;;;1.88;0.13;;;16.80;99.90;;;;;;5036824;28;20508;-77
2022/08/22 01:14:10;;;;;;;7.00;0.50;;;16.80;99.90;;;;;;5036750;28;20437;-77
2022/08/22 01:16:47;;;;;;;10.77;1.17;;;16.80;99.90;;;;;;5036818;28;20042;-77
2022/08/22 01:19:47;;;;;;;4.43;0.38;;;16.70;99.90;;;;;;5036687;28;20379;-77
2022/08/22 01:22:25;;;;;;;2.78;0.57;;;16.70;99.90;;;;;;5036637;28;20028;-77
2022/08/22 01:25:17;;;;;;;2.47;0.20;;;16.70;99.90;;;;;;5036794;28;20037;-77
2022/08/22 01:28:04;;;;;;;6.57;0.65;;;16.60;99.90;;;;;;5036551;28;20104;-77
2022/08/22 01:30:36;;;;;;;1.73;0.30;;;16.60;99.90;;;;;;5036586;28;20021;-77
2022/08/22 01:33:25;;;;;;;4.07;0.25;;;16.60;99.90;;;;;;5036358;28;20092;-77
2022/08/22 01:36:11;;;;;;;3.30;0.50;;;16.60;99.90;;;;;;5037051;28;20017;-77
2022/08/22 01:39:00;;;;;;;1.30;0.10;;;16.60;99.90;;;;;;5036357;28;20386;-77
2022/08/22 01:41:34;;;;;;;2.45;0.40;;;16.60;99.90;;;;;;5018617;28;20020;-77
2022/08/22 01:44:12;;;;;;;2.58;1.00;;;16.50;99.90;;;;;;5036147;28;20127;-77
2022/08/22 01:46:57;;;;;;;2.17;0.30;;;16.50;99.90;;;;;;5036768;28;20037;-77
2022/08/22 01:49:36;;;;;;;3.40;0.20;;;16.40;99.90;;;;;;5036667;28;20017;-77
2022/08/22 01:52:08;;;;;;;;;;;16.50;99.90;;;;;;5036473;28;20021;-77
2022/08/22 01:54:44;;;;;;;3.67;0.30;;;16.50;99.90;;;;;;5036241;28;20282;-77
2022/08/22 01:57:11;;;;;;;5.47;0.25;;;16.50;99.90;;;;;;5018585;28;20120;-77
2022/08/22 01:59:44;;;;;;;1.33;0.35;;;16.50;99.90;;;;;;5035922;28;20037;-77
2022/08/22 02:02:32;;;;;;;4.85;0.65;;;17.00;99.90;;;;;;5018073;28;20052;-77
2022/08/22 02:05:22;;;;;;;3.35;0.43;;;16.60;99.90;;;;;;5035790;28;20414;-77
2022/08/22 02:08:17;;;;;;;1.70;0.10;;;16.60;99.90;;;;;;5036447;28;20083;-75
2022/08/22 02:11:19;;;;;;;4.22;0.47;;;16.60;99.90;;;;;;5035731;28;20083;-77
2022/08/22 02:14:11;;;;;;;5.07;0.90;;;16.70;99.90;;;;;;4954936;28;20027;-77
2022/08/22 02:16:41;;;;;;;6.70;0.65;;;16.70;99.90;;;;;;5034550;28;20051;-77
2022/08/22 02:19:21;;;;;;;3.22;0.63;;;16.70;99.90;;;;;;5017806;28;20112;-77
2022/08/22 02:22:18;;;;;;;7.60;1.23;;;16.70;99.90;;;;;;5035565;28;20040;-77
2022/08/22 02:24:52;;;;;;;4.65;0.57;;;16.60;99.90;;;;;;5017792;28;20479;-77
2022/08/22 02:27:29;;;;;;;3.70;0.65;;;16.60;99.90;;;;;;5035668;28;20029;-77
2022/08/22 02:30:18;;;;;;;3.40;0.50;;;16.60;99.90;;;;;;5017706;28;20482;-77
2022/08/22 02:33:17;;;;;;;2.15;0.43;;;16.60;99.90;;;;;;5035312;28;20022;-77
2022/08/22 02:36:20;;;;;;;5.03;0.45;;;16.60;99.90;;;;;;5017775;28;20402;-77
2022/08/22 02:39:04;;;;;;;6.68;0.70;;;16.60;99.90;;;;;;5011407;28;20034;-77
2022/08/22 02:42:07;;;;;;;3.90;0.40;;;16.50;99.90;;;;;;5035158;28;20372;-77
2022/08/22 02:44:40;;;;;;;3.58;0.30;;;16.50;99.90;;;;;;5035097;28;20478;-77
2022/08/22 02:47:13;;;;;;;6.75;0.40;;;16.50;99.90;;;;;;5035038;28;20021;-77
2022/08/22 02:50:25;;;;;;;3.42;0.52;;;16.40;99.90;;;;;;5017344;28;20116;-77
2022/08/22 02:53:31;;;;;;;3.65;0.30;;;16.50;99.90;;;;;;5035893;28;20021;-76
2022/08/22 02:56:05;;;;;;;5.68;0.40;;;16.50;99.90;;;;;;5035685;28;20144;-76
2022/08/22 02:58:47;;;;;;;3.45;0.70;;;16.40;99.90;;;;;;5034909;28;20018;-76
2022/08/22 03:01:27;;;;;;;5.05;0.85;;;16.40;99.90;;;;;;5034822;28;20029;-76
2022/08/22 03:04:15;;;;;;;4.88;0.73;;;16.40;99.90;;;;;;5034725;28;20026;-76
2022/08/22 03:06:59;;;;;;;5.07;0.95;;;16.40;99.90;;;;;;5035300;28;20026;-76
2022/08/22 03:09:30;;;;;;;2.95;0.52;;;16.40;99.90;;;;;;5035221;28;20025;-74
2022/08/22 03:12:30;;;;;;;6.88;0.47;;;16.40;99.90;;;;;;5016926;28;20486;-73
2022/08/22 03:15:01;;;;;;;2.85;0.25;;;16.40;99.90;;;;;;5034518;28;20040;-74
2022/08/22 03:17:31;;;;;;;6.57;0.75;;;16.40;99.90;;;;;;5034503;28;20029;-74
2022/08/22 03:20:20;;;;;;;4.30;0.32;;;16.40;99.90;;;;;;5034725;28;20029;-76
2022/08/22 03:23:18;;;;;;;3.05;0.30;;;16.40;99.90;;;;;;5023542;28;20037;-76
2022/08/22 03:26:08;;;;;;;4.43;0.73;;;16.40;99.90;;;;;;4973210;28;20045;-74
2022/08/22 03:28:48;;;;;;;2.83;0.15;;;16.40;99.90;;;;;;5034418;28;20033;-76
2022/08/22 03:31:19;;;;;;;4.40;0.73;;;16.40;99.90;;;;;;5034861;28;20033;-76
2022/08/22 03:34:05;;;;;;;4.65;0.65;;;16.40;99.90;;;;;;5034191;28;20026;-76
2022/08/22 03:36:31;;;;;;;2.20;0.20;;;16.40;99.90;;;;;;5033994;28;20021;-76
2022/08/22 03:39:16;;;;;;;10.10;0.90;;;16.40;99.90;;;;;;5034037;28;20478;-74
2022/08/22 03:42:06;;;;;;;6.68;0.57;;;16.40;99.90;;;;;;5034191;28;20032;-74
2022/08/22 03:44:53;;;;;;;3.72;0.10;;;16.40;99.90;;;;;;5016339;28;20030;-74
2022/08/22 03:48:02;;;;;;;3.85;0.30;;;16.40;99.90;;;;;;5034122;28;20053;-74
2022/08/22 03:50:46;;;;;;;4.18;0.55;;;16.30;99.90;;;;;;5034485;28;20042;-74
2022/08/22 03:53:24;;;;;;;4.43;0.20;;;16.40;99.90;;;;;;5033702;28;20049;-75
2022/08/22 03:56:27;;;;;;;1.17;0.07;;;16.40;99.90;;;;;;5033996;28;20025;-75
2022/08/22 03:59:22;;;;;;;5.65;0.50;;;16.40;99.90;;;;;;5033756;28;20026;-75
2022/08/22 04:02:19;;;;;;;1.38;0.30;;;16.40;99.90;;;;;;5016056;28;20056;-75
2022/08/22 04:05:02;;;;;;;7.75;0.65;;;16.40;99.90;;;;;;5034367;28;20067;-75
2022/08/22 04:07:46;;;;;;;3.10;0.50;;;16.40;99.90;;;;;;5033729;28;20124;-75
2022/08/22 04:10:37;;;;;;;2.45;0.50;;;16.50;99.90;;;;;;5034123;28;20075;-74
2022/08/22 04:13:12;;;;;;;4.22;0.70;;;16.50;99.90;;;;;;5033567;28;20049;-75
2022/08/22 04:15:59;;;;;;;8.05;0.75;;;16.50;99.90;;;;;;5015702;28;20048;-75
2022/08/22 04:18:43;;;;;;;1.63;0.30;;;16.50;99.90;;;;;;5015876;28;20509;-74
2022/08/22 04:21:38;;;;;;;1.55;0.32;;;16.50;99.90;;;;;;5033393;28;20483;-74
2022/08/22 04:24:44;;;;;;;4.47;0.80;;;16.50;99.90;;;;;;4962706;28;20148;-74
2022/08/22 04:27:20;;;;;;;4.95;0.50;;;16.50;99.90;;;;;;5033400;28;20030;-74
2022/08/22 04:29:55;;;;;;;4.28;0.52;;;16.50;99.90;;;;;;5033131;28;20021;-74
2022/08/22 04:32:37;;;;;;;5.32;0.52;;;16.50;99.90;;;;;;5033471;28;20033;-74
2022/08/22 04:35:16;;;;;;;4.38;0.50;;;16.50;99.90;;;;;;5033640;28;20029;-74
2022/08/22 04:37:51;;;;;;;4.68;0.30;;;16.50;99.90;;;;;;5033379;28;20036;-74
2022/08/22 04:40:42;;;;;;;5.53;0.85;;;16.40;99.90;;;;;;5033258;28;20026;-75
2022/08/22 04:43:22;;;;;;;5.13;0.70;;;16.40;99.90;;;;;;5033051;28;20029;-74
2022/08/22 04:46:06;;;;;;;6.30;0.55;;;16.40;99.90;;;;;;5033289;28;20513;-74
2022/08/22 04:49:19;;;;;;;6.97;1.10;;;16.40;99.90;;;;;;5016563;28;20018;-74
2022/08/22 04:51:56;;;;;;;3.20;0.50;;;16.90;99.90;;;;;;5032843;28;20030;-74
2022/08/22 04:54:53;;;;;;;7.60;0.88;;;16.30;99.90;;;;;;5015451;28;20025;-75
2022/08/22 04:57:31;;;;;;;3.60;0.60;;;16.30;99.90;;;;;;5033458;28;20025;-74
2022/08/22 05:00:05;;;;;;;4.72;0.75;;;16.30;99.90;;;;;;5033749;28;20084;-74
2022/08/22 05:02:33;;;;;;;5.38;0.60;;;16.40;99.90;;;;;;5033039;28;20112;-74
2022/08/22 05:05:07;;;;;;;4.35;0.50;;;16.30;99.90;;;;;;5032924;28;20057;-74
2022/08/22 05:07:38;;;;;;;4.90;0.52;;;16.40;99.90;;;;;;5033253;28;20474;-74
2022/08/22 05:10:15;;;;;;;4.03;0.30;;;16.40;99.90;;;;;;5015293;28;20021;-74
2022/08/22 05:12:44;;;;;;;3.35;0.30;;;16.50;99.90;;;;;;5015255;28;20124;-74
2022/08/22 05:15:19;;;;;;;4.13;0.35;;;16.50;99.90;;;;;;5015129;28;20017;-74
2022/08/22 05:17:47;;;;;;;3.25;0.73;;;16.50;99.90;;;;;;5032918;28;20044;-74
2022/08/22 05:20:20;;;;;;;6.18;0.55;;;16.50;99.90;;;;;;5032895;28;20026;-74
2022/08/22 05:22:55;;;;;;;5.00;0.88;;;16.60;99.90;;;;;;5015102;28;20025;-74
2022/08/22 05:25:27;;;;;;;3.63;0.30;;;16.60;99.90;;;;;;5033087;28;20068;-74
2022/08/22 05:28:03;;;;;;;4.90;0.52;;;16.60;99.90;;;;;;5015158;28;20026;-74
2022/08/22 05:30:32;;;;;;;2.05;0.40;;;16.70;99.90;;;;;;5032944;28;20017;-74
2022/08/22 05:33:05;;;;;;;;;;;16.70;99.90;;;;;;5033355;28;20100;-74
2022/08/22 05:35:38;;;;;;;6.13;0.43;;;16.70;99.90;;;;;;5032856;28;19905;-74
2022/08/22 05:38:08;;;;;;;2.90;0.47;;;16.70;99.90;;;;;;5033289;28;20033;-74
2022/08/22 05:40:36;;;;;;;3.78;0.30;;;16.70;99.90;;;;;;5032936;28;20021;-74
2022/08/22 05:43:03;;;;;;;4.07;0.70;;;16.70;99.90;;;;;;5014877;28;20025;-75
2022/08/22 05:45:31;;;;;;;5.65;0.80;;;16.80;99.90;;;;;;5032882;28;20025;-75
2022/08/22 05:48:02;;;;;;;5.10;0.65;;;16.80;99.90;;;;;;5034028;28;20079;-75
2022/08/22 05:50:55;;;;;;;4.85;0.65;;;16.80;99.90;;;;;;5036162;28;20021;-75
2022/08/22 05:53:46;;;;;;;3.45;0.63;;;16.90;99.90;;;;;;5036083;28;20083;-74
2022/08/22 05:56:30;;;;;;;3.45;0.70;;;17.00;99.90;;;;;;5018483;28;20452;-74
2022/08/22 05:59:01;;;;;;;6.68;0.98;;;17.10;99.90;;;;;;5018406;28;20021;-74
2022/08/22 06:01:36;;;;;;;2.22;0.88;;;17.10;99.90;;;;;;5036139;28;20079;-75
2022/08/22 06:04:30;;;;;;;2.88;0.43;;;17.20;99.90;;;;;;5036413;28;20029;-75
2022/08/22 06:07:24;;;;;;;2.53;0.40;;;17.20;99.90;;;;;;5018758;28;20021;-75
2022/08/22 06:10:06;;;;;;;5.47;1.45;;;17.20;99.90;;;;;;5018562;28;20028;-75
2022/08/22 06:12:38;;;;;;;7.63;1.05;;;17.30;99.90;;;;;;5036328;28;20029;-75
2022/08/22 06:15:13;;;;;;;6.32;0.80;;;17.40;99.90;;;;;;5036321;28;20025;-75
2022/08/22 06:17:44;;;;;;;8.73;1.23;;;17.40;99.90;;;;;;5018674;28;20042;-75
2022/08/22 06:20:18;;;;;;;2.60;0.40;;;17.50;99.90;;;;;;5036704;28;20053;-75
2022/08/22 06:22:51;;;;;;;8.57;1.13;;;17.50;99.90;;;;;;5036443;28;20398;-75
2022/08/22 06:25:31;;;;;;;5.05;1.10;;;17.60;99.90;;;;;;5018233;28;20120;-75
2022/08/22 06:28:00;;;;;;;6.00;1.45;;;17.60;99.90;;;;;;5035782;28;20025;-74
2022/08/22 06:30:27;;;;;;;3.70;0.77;;;17.70;99.90;;;;;;5035334;28;20044;-74
2022/08/22 06:32:59;;;;;;;8.02;1.15;;;17.70;99.90;;;;;;5035512;28;20029;-74
2022/08/22 06:35:28;;;;;;;5.70;0.93;;;17.90;99.90;;;;;;5035578;28;20025;-74
2022/08/22 06:37:58;;;;;;;5.60;0.90;;;17.90;99.90;;;;;;5035806;28;20441;-75
2022/08/22 06:40:27;;;;;;;5.35;0.95;;;18.10;99.90;;;;;;5036361;28;20025;-74
2022/08/22 06:42:54;;;;;;;9.20;1.38;;;18.20;99.90;;;;;;5035417;28;20029;-74
2022/08/22 06:45:30;;;;;;;5.55;0.82;;;18.40;99.90;;;;;;5035571;28;20025;-74
2022/08/22 06:48:14;;;;;;;8.93;0.55;;;18.50;99.90;;;;;;5035993;28;20030;-75
2022/08/22 06:50:43;;;;;;;5.25;1.02;;;18.70;99.90;;;;;;5035445;28;20378;-75
2022/08/22 06:53:19;;;;;;;4.45;1.00;;;18.90;99.90;;;;;;5017116;28;20025;-75
2022/08/22 06:55:51;;;;;;;5.93;0.60;;;19.00;99.90;;;;;;5035002;28;20037;-75
2022/08/22 06:58:33;;;;;;;4.55;0.75;;;19.10;99.90;;;;;;5017096;28;20021;-75
2022/08/22 07:01:06;;;;;;;9.48;1.08;;;19.10;99.90;;;;;;5035142;28;20037;-75
2022/08/22 07:03:36;;;;;;;4.70;0.70;;;19.20;99.90;;;;;;5034730;28;20112;-76
2022/08/22 07:06:03;;;;;;;8.48;1.25;;;19.30;99.90;;;;;;5017040;28;20021;-76
2022/08/22 07:08:32;;;;;;;7.32;0.77;;;19.30;99.90;;;;;;5034695;28;20479;-76
2022/08/22 07:11:26;;;;;;;4.75;0.30;;;19.30;99.90;;;;;;5017111;28;20021;-76
2022/08/22 07:14:14;;;;;;;2.97;0.90;;;19.30;99.90;;;;;;5016798;28;20022;-76
2022/08/22 07:16:41;;;;;;;1.20;0.63;;;19.30;99.90;;;;;;5043398;23;20118;-75
2022/08/22 07:19:22;;;;;;;8.00;0.90;;;19.20;99.90;;;;;;5034833;28;20033;-76
2022/08/22 07:21:48;;;;;;;5.78;1.00;;;19.20;99.90;;;;;;5035274;28;20036;-76
2022/08/22 07:24:17;;;;;;;6.07;0.77;;;19.10;99.90;;;;;;5034428;28;20407;-75
2022/08/22 07:26:50;;;;;;;4.95;0.90;;;19.10;99.90;;;;;;5034550;28;20021;-76
2022/08/22 07:29:27;;;;;;;3.67;0.40;;;19.10;99.90;;;;;;5034426;28;20105;-76
2022/08/22 07:32:02;;;;;;;6.50;0.70;;;19.10;99.90;;;;;;5035020;28;20413;-75
2022/08/22 07:34:35;;;;;;;4.13;0.75;;;19.20;99.90;;;;;;5034706;28;20080;-75
2022/08/22 07:37:19;;;;;;;4.57;0.80;;;19.30;99.90;;;;;;5034396;28;20071;-75
2022/08/22 07:39:59;;;;;;;3.22;0.75;;;19.50;99.90;;;;;;5033001;28;20051;-76
2022/08/22 07:42:41;;;;;;;13.23;1.33;;;19.70;99.90;;;;;;5034549;28;20033;-75
2022/08/22 07:45:33;;;;;;;3.70;0.93;;;20.00;99.90;;;;;;5034015;28;20029;-75
2022/08/22 07:48:23;;;;;;;3.13;0.47;;;20.20;99.90;;;;;;5034048;28;20482;-76
2022/08/22 07:51:01;;;;;;;2.95;0.70;;;20.40;99.90;;;;;;5034569;28;20424;-75
2022/08/22 07:53:33;;;;;;;4.80;1.15;;;20.40;99.90;;;;;;5033017;28;20082;-75
2022/08/22 07:56:00;;;;;;;8.68;1.10;;;20.40;99.90;;;;;;5034174;28;20025;-75
2022/08/22 07:58:29;;;;;;;4.22;0.63;;;20.30;99.90;;;;;;5033974;28;20018;-76
2022/08/22 08:00:55;;;;;;;;;;;20.30;99.90;;;;;;5033155;28;20032;-76
2022/08/22 08:03:25;;;;;;;3.60;0.70;;;20.30;99.90;;;;;;5032488;28;20362;-75
2022/08/22 08:05:51;;;;;;;5.18;0.57;;;20.40;99.90;;;;;;5034071;28;20359;-75
2022/08/22 08:08:25;;;;;;;5.15;0.50;;;20.50;99.90;;;;;;5032583;28;20018;-75
2022/08/22 08:10:53;;;;;;;6.43;0.73;;;20.60;99.90;;;;;;5032033;28;20029;-76
2022/08/22 08:13:28;;;;;;;2.47;0.45;;;20.90;99.90;;;;;;5033682;28;20018;-75
2022/08/22 08:15:54;;;;;;;8.77;1.45;;;21.00;99.90;;;;;;5033557;28;20044;-75
2022/08/22 08:18:24;;;;;;;8.18;0.80;;;21.20;99.90;;;;;;5033644;28;20471;-75
2022/08/22 08:20:53;;;;;;;3.13;0.40;;;21.30;99.90;;;;;;5032347;28;20075;-75
2022/08/22 08:23:20;;;;;;;5.30;0.85;;;21.40;99.90;;;;;;5032241;28;20080;-75
2022/08/22 08:25:54;;;;;;;3.58;0.32;;;21.60;99.90;;;;;;5033716;28;20025;-75
2022/08/22 08:28:33;;;;;;;6.13;0.30;;;21.60;99.90;;;;;;5033939;28;20096;-75
2022/08/22 08:31:07;;;;;;;5.00;0.30;;;21.80;99.90;;;;;;5033586;28;20029;-75
2022/08/22 08:33:36;;;;;;;4.78;0.70;;;21.90;99.90;;;;;;5033399;28;20026;-76
2022/08/22 08:36:09;;;;;;;4.10;0.20;;;22.10;99.90;;;;;;5033960;28;20076;-76
2022/08/22 08:38:41;;;;;;;2.80;0.40;;;22.20;99.90;;;;;;5032108;28;20558;-76
2022/08/22 08:41:33;;;;;;;2.00;0.35;;;22.30;99.90;;;;;;5033606;28;20368;-76
2022/08/22 08:44:17;;;;;;;1.70;0.15;;;22.30;99.90;;;;;;5031958;28;20029;-75
2022/08/22 08:46:58;;;;;;;5.43;0.50;;;22.40;99.90;;;;;;5033425;28;20049;-75
2022/08/22 08:49:30;;;;;;;8.35;0.90;;;22.60;99.90;;;;;;5033312;28;20083;-75
2022/08/22 08:52:42;;;;;;;4.13;0.20;;;22.70;99.90;;;;;;5032036;28;20022;-75
2022/08/22 08:55:29;;;;;;;5.38;0.30;;;22.80;99.90;;;;;;5014110;28;20036;-75
2022/08/22 08:58:15;;;;;;;4.80;0.25;;;23.00;99.90;;;;;;5033280;28;20030;-75
2022/08/22 09:00:41;;;;;;;2.17;0.40;;;23.00;99.90;;;;;;5031930;28;20026;-75
2022/08/22 09:03:29;;;;;;;3.92;0.85;;;23.10;99.90;;;;;;5031809;28;20036;-76
2022/08/22 09:06:05;;;;;;;5.00;0.30;;;23.30;99.90;;;;;;5033236;28;20030;-76
2022/08/22 09:08:53;;;;;;;3.70;0.17;;;23.30;99.90;;;;;;5033209;28;20420;-76
2022/08/22 09:12:06;;;;;;;7.35;0.52;;;23.30;99.90;;;;;;5033006;28;20417;-76
2022/08/22 09:14:47;;;;;;;2.08;0.47;;;23.20;99.90;;;;;;4972684;28;20121;-75
2022/08/22 09:17:39;;;;;;;6.15;0.38;;;23.30;99.90;;;;;;4972504;28;20110;-75
2022/08/22 09:20:19;;;;;;;4.68;0.20;;;23.40;99.90;;;;;;4994417;28;20043;-75
2022/08/22 09:23:22;;;;;;;2.97;0.45;;;23.40;99.90;;;;;;5033223;28;20025;-75
2022/08/22 09:26:01;;;;;;;3.08;0.25;;;23.40;99.90;;;;;;5037030;28;20044;-75
2022/08/22 09:28:31;;;;;;;3.80;0.75;;;23.70;99.90;;;;;;5036697;28;20026;-76
2022/08/22 09:31:03;;;;;;;2.50;0.28;;;23.90;99.90;;;;;;5035304;28;20037;-76
2022/08/22 09:33:50;;;;;;;5.72;0.38;;;23.90;99.90;;;;;;5035210;28;20144;-75
2022/08/22 09:36:34;;;;;;;2.22;0.10;;;24.00;99.90;;;;;;5036803;28;20462;-75
2022/08/22 09:39:15;;;;;;;5.20;0.20;;;24.20;99.90;;;;;;5035611;28;20482;-76
2022/08/22 09:41:44;;;;;;;2.08;0.10;;;24.20;99.90;;;;;;5036387;28;20513;-75
2022/08/22 09:44:37;;;;;;;2.00;0.43;;;24.30;99.90;;;;;;5034957;28;20083;-75
2022/08/22 09:47:24;;;;;;;4.07;0.20;;;24.50;99.90;;;;;;5035030;28;20028;-75
2022/08/22 09:50:19;;;;;;;3.83;0.38;;;24.60;99.90;;;;;;5036290;28;20026;-75
2022/08/22 09:53:15;;;;;;;1.45;0.10;;;24.70;99.90;;;;;;5036502;28;20029;-76
2022/08/22 09:56:06;;;;;;;5.03;0.43;;;24.60;99.90;;;;;;5034936;28;20044;-76
2022/08/22 09:58:40;;;;;;;4.63;0.30;;;24.60;99.90;;;;;;5034848;28;20147;-75
2022/08/22 10:01:18;;;;;;;5.10;0.25;;;24.60;99.90;;;;;;5036686;28;20084;-75
2022/08/22 10:04:21;;;;;;;3.60;0.08;;;24.90;99.90;;;;;;5035862;28;20021;-75
2022/08/22 10:07:00;;;;;;;4.78;1.02;;;25.20;99.90;;;;;;5034611;28;20025;-76
2022/08/22 10:09:48;;;;;;;4.90;0.17;;;25.40;99.90;;;;;;5036490;28;20017;-75
2022/08/22 10:12:24;;;;;;;2.53;0.00;;;25.30;98.30;;;;;;5035860;28;20044;-75
2022/08/22 10:15:15;;;;;;;4.60;0.75;;;25.30;99.70;;;;;;5036656;28;20053;-75
2022/08/22 10:18:27;;;;;;;2.47;0.10;;;25.30;99.00;;;;;;5034850;28;20076;-75
2022/08/22 10:21:17;;;;;;;4.47;0.40;;;25.30;99.90;;;;;;5016780;28;20041;-77
2022/08/22 10:23:58;;;;;;;5.18;0.25;;;25.30;98.70;;;;;;5035473;28;21917;-77
2022/08/22 10:26:25;;;;;;;5.13;0.57;;;25.40;99.70;;;;;;5034343;28;20108;-77
2022/08/22 10:29:14;;;;;;;8.23;0.53;;;25.50;97.70;;;;;;5034289;28;20028;-77
2022/08/22 10:31:53;;;;;;;2.42;0.45;;;25.50;97.20;;;;;;5036070;28;20040;-77
2022/08/22 10:34:29;;;;;;;3.30;0.20;;;25.60;97.10;;;;;;5034016;28;20129;-75
2022/08/22 10:37:13;;;;;;;4.13;0.10;;;25.60;96.50;;;;;;5034256;28;20078;-75
2022/08/22 10:40:14;;;;;;;1.33;0.08;;;25.70;97.00;;;;;;5034973;28;20030;-75
2022/08/22 10:43:00;;;;;;;4.03;0.50;;;25.80;97.00;;;;;;5035206;28;20057;-75
2022/08/22 10:45:55;;;;;;;2.63;0.30;;;25.90;95.90;;;;;;5004483;28;20045;-75
2022/08/22 10:48:29;;;;;;;4.55;0.60;;;25.90;96.30;;;;;;5033717;28;20483;-75
2022/08/22 10:51:27;;;;;;;3.75;0.20;;;26.00;95.50;;;;;;5035369;28;20057;-75
2022/08/22 10:53:58;;;;;;;3.70;0.30;;;26.30;95.80;;;;;;5032114;28;20030;-75
2022/08/22 10:56:45;;;;;;;4.90;0.05;;;26.50;93.80;;;;;;5034856;28;20455;-75
2022/08/22 10:59:17;;;;;;;2.90;0.68;;;26.40;92.30;;;;;;5035305;28;20049;-75
2022/08/22 11:02:00;;;;;;;2.72;0.10;;;26.20;92.40;;;;;;5035402;28;20021;-75
2022/08/22 11:05:00;;;;;;;3.42;0.40;;;25.80;92.70;;;;;;5035146;28;20021;-75
2022/08/22 11:07:38;;;;;;;4.97;0.40;;;25.90;92.60;;;;;;5035043;28;20028;-75
2022/08/22 11:10:17;;;;;;;7.57;1.23;;;26.30;92.20;;;;;;5035373;28;20017;-75
2022/08/22 11:13:03;;;;;;;2.40;0.25;;;26.40;92.20;;;;;;5035430;28;20028;-75
2022/08/22 11:15:45;;;;;;;8.25;0.73;;;26.70;92.30;;;;;;5034782;28;20026;-75
2022/08/22 11:18:34;;;;;;;4.03;0.40;;;26.80;92.10;;;;;;5034974;28;20116;-75
2022/08/22 11:21:09;;;;;;;;;;;27.20;91.00;;;;;;5034014;28;20029;-75
2022/08/22 11:24:04;;;;;;;5.13;0.30;;;27.10;90.70;;;;;;5033416;28;19909;-75
2022/08/22 11:26:57;;;;;;;6.03;0.70;;;27.00;90.20;;;;;;5019656;28;20124;-75
2022/08/22 11:29:45;;;;;;;1.30;0.00;;;27.10;90.50;;;;;;5033373;28;20493;-75
2022/08/22 11:32:14;;;;;;;1.73;0.22;;;27.60;90.40;;;;;;5033248;28;20020;-76
2022/08/22 11:34:56;;;;;;;6.32;0.20;;;27.60;90.50;;;;;;5033201;28;20033;-75
2022/08/22 11:37:47;;;;;;;3.90;0.38;;;27.50;89.00;;;;;;5034431;28;20021;-75
2022/08/22 11:40:41;;;;;;;4.07;0.20;;;27.50;87.70;;;;;;5034770;28;20041;-75
2022/08/22 11:43:09;;;;;;;5.57;0.10;;;27.60;87.80;;;;;;5032955;28;20027;-75
2022/08/22 11:45:44;;;;;;;2.80;0.38;;;27.60;85.60;;;;;;5033377;28;20379;-76
2022/08/22 11:48:37;;;;;;;2.47;0.00;;;27.50;85.00;;;;;;5034880;28;20025;-77
2022/08/22 11:51:16;;;;;;;2.22;0.30;;;27.20;85.10;;;;;;5032841;28;20025;-77
2022/08/22 11:53:49;;;;;;;2.33;0.30;;;27.10;86.80;;;;;;5035028;28;20063;-76
2022/08/22 11:56:47;;;;;;;6.20;0.35;;;27.30;86.80;;;;;;5034112;28;20076;-77
2022/08/22 11:59:33;;;;;;;2.88;0.68;;;27.40;80.80;;;;;;5033775;28;20433;-77
2022/08/22 12:02:02;;;;;;;1.67;0.30;;;27.70;82.20;;;;;;5034124;28;20060;-76
2022/08/22 12:04:32;;;;;;;2.25;0.28;;;28.10;80.60;;;;;;5033653;28;20022;-76
2022/08/22 12:07:27;;;;;;;3.38;0.10;;;28.20;78.30;;;;;;5032793;28;20033;-77
2022/08/22 12:10:13;;;;;;;1.45;0.00;;;28.20;71.80;;;;;;5034202;28;20033;-77
2022/08/22 12:13:27;;;;;;;2.83;0.00;;;28.20;69.20;;;;;;5032448;28;20112;-77
2022/08/22 12:16:07;;;;;;;4.57;0.15;;;28.10;70.00;;;;;;5024527;28;20212;-77
2022/08/22 12:18:41;;;;;;;2.65;0.32;;;27.80;68.10;;;;;;5034211;28;20416;-77
2022/08/22 12:21:22;;;;;;;1.55;0.00;;;27.50;70.00;;;;;;5032941;28;20466;-75
2022/08/22 12:24:03;;;;;;;1.00;0.00;;;27.10;71.20;;;;;;5031948;28;20037;-76
2022/08/22 12:26:51;;;;;;;3.60;0.75;;;26.70;74.50;;;;;;5033353;28;20052;-76
2022/08/22 12:29:25;;;;;;;2.25;0.35;;;26.60;75.60;;;;;;5033978;28;20017;-76
2022/08/22 12:32:37;;;;;;;5.55;0.32;;;26.90;76.40;;;;;;5032260;28;20025;-75
2022/08/22 12:35:24;;;;;;;1.20;0.00;;;27.20;73.50;;;;;;5033695;28;20089;-77
2022/08/22 12:38:15;;;;;;;2.97;0.25;;;27.50;71.90;;;;;;5033875;28;20025;-77
2022/08/22 12:41:14;;;;;;;3.70;0.32;;;27.90;72.20;;;;;;5033581;28;20519;-77
2022/08/22 12:43:46;;;;;;;2.10;0.10;;;28.60;68.50;;;;;;5033296;28;20037;-77
2022/08/22 12:46:54;;;;;;;2.38;0.10;;;28.90;66.90;;;;;;5033819;28;20375;-77
2022/08/22 12:49:26;;;;;;;1.67;0.10;;;29.40;66.10;;;;;;5033400;28;20025;-75
2022/08/22 12:52:23;;;;;;;2.15;0.10;;;29.30;66.90;;;;;;5031916;28;20036;-77
2022/08/22 12:55:08;;;;;;;5.13;0.40;;;29.50;65.60;;;;;;5033523;28;20025;-77
2022/08/22 12:57:51;;;;;;;4.38;0.10;;;29.80;66.40;;;;;;5036135;28;20041;-76
2022/08/22 13:00:35;;;;;;;3.03;0.52;;;30.10;64.40;;;;;;5037359;28;20033;-76
2022/08/22 13:03:05;;;;;;;3.20;0.13;;;30.00;65.40;;;;;;5036032;28;20087;-75
2022/08/22 13:05:32;;;;;;;2.65;0.00;;;30.30;64.70;;;;;;5037559;28;20044;-77
2022/08/22 13:08:06;;;;;;;2.87;0.37;;;30.40;62.50;;;;;;5037289;28;20024;-77
2022/08/22 13:10:39;;;;;;;2.13;0.00;;;30.30;60.60;;;;;;5036014;28;20075;-77
2022/08/22 13:13:07;;;;;;;3.92;0.43;;;30.30;62.40;;;;;;5037089;28;20061;-77
2022/08/22 13:16:00;;;;;;;2.20;0.10;;;30.50;61.20;;;;;;5038054;28;20363;-78
2022/08/22 13:18:32;;;;;;;3.53;0.43;;;30.80;62.10;;;;;;5038105;28;20042;-78
2022/08/22 13:21:02;;;;;;;2.58;0.30;;;31.00;59.50;;;;;;5037956;28;20028;-78
2022/08/22 13:23:36;;;;;;;2.83;0.00;;;31.00;60.90;;;;;;5037854;28;20026;-78
2022/08/22 13:26:20;;;;;;;1.92;0.00;;;31.00;63.00;;;;;;5036406;28;20400;-78
2022/08/22 13:28:54;;;;;;;0.77;0.30;;;31.10;60.50;;;;;;5038247;28;20112;-77
2022/08/22 13:31:26;;;;;;;1.45;0.10;;;31.40;58.80;;;;;;5038628;28;20029;-77
2022/08/22 13:34:09;;;;;;;1.42;0.10;;;31.40;56.20;;;;;;5039100;28;20018;-78
2022/08/22 13:36:46;;;;;;;2.13;0.00;;;31.10;56.60;;;;;;5038068;28;20112;-78
2022/08/22 13:39:11;;;;;;;1.58;0.00;;;31.30;57.10;;;;;;5037766;28;20039;-78
2022/08/22 13:41:54;;;;;;;3.60;0.10;;;31.50;59.40;;;;;;5036607;28;20498;-77
2022/08/22 13:44:44;;;;;;;5.32;0.00;;;31.60;57.10;;;;;;5036490;28;20479;-77
2022/08/22 13:47:15;;;;;;;4.07;0.40;;;31.90;57.50;;;;;;5036983;28;20018;-77
2022/08/22 13:49:47;;;;;;;1.20;0.10;;;31.90;58.00;;;;;;5036787;28;20022;-78
2022/08/22 13:52:19;;;;;;;1.95;0.00;;;31.90;58.40;;;;;;5038912;28;20049;-77
2022/08/22 13:55:17;;;;;;;2.28;0.20;;;32.10;59.00;;;;;;5036661;28;20025;-78
2022/08/22 13:57:46;;;;;;;2.00;0.30;;;32.20;58.50;;;;;;5036186;28;20032;-77
2022/08/22 14:00:18;;;;;;;4.63;0.50;;;32.40;58.00;;;;;;5036035;28;20025;-78